createdAt,value
2022-11-05T00:00:37.200Z,7.60
2022-11-05T00:03:28.742Z,7.50
2022-11-05T00:06:20.155Z,7.38
2022-11-05T00:09:11.654Z,7.18
2022-11-05T00:12:02.969Z,9.32
2022-11-05T00:14:54.048Z,8.40
2022-11-05T00:17:29.644Z,8.63
2022-11-05T00:20:03.665Z,7.50
2022-11-05T00:22:55.374Z,7.68
2022-11-05T00:25:30.504Z,7.13
2022-11-05T00:28:04.938Z,7.63
2022-11-05T00:30:38.770Z,7.63
2022-11-05T00:33:14.273Z,9.07
2022-11-05T00:35:48.235Z,7.68
2022-11-05T00:38:22.132Z,8.77
2022-11-05T00:40:56.078Z,7.93
2022-11-05T00:43:47.546Z,6.65
2022-11-05T00:46:21.457Z,7.53
2022-11-05T00:49:14.061Z,8.13
2022-11-05T00:51:48.035Z,6.55
2022-11-05T00:54:21.867Z,7.40
2022-11-05T00:59:33.229Z,8.32
2022-11-05T01:02:07.289Z,8.07
2022-11-05T01:04:42.677Z,7.55
2022-11-05T01:07:17.143Z,7.38
2022-11-05T01:09:51.049Z,8.25
2022-11-05T01:12:25.088Z,7.10
2022-11-05T01:14:58.973Z,8.63
2022-11-05T01:17:33.074Z,6.97
2022-11-05T01:20:09.553Z,7.78
2022-11-05T01:22:43.778Z,7.90
2022-11-05T01:25:17.726Z,7.55
2022-11-05T01:27:51.748Z,7.75
2022-11-05T01:30:25.959Z,8.68
2022-11-05T01:33:00.010Z,6.63
2022-11-05T01:35:35.523Z,8.40
2022-11-05T01:38:09.383Z,7.28
2022-11-05T01:43:19.898Z,7.55
2022-11-05T01:45:58.203Z,8.00
2022-11-05T01:48:35.136Z,7.70
2022-11-05T01:51:13.315Z,7.75
2022-11-05T01:53:49.784Z,7.07
2022-11-05T01:56:27.271Z,7.07
2022-11-05T01:59:04.767Z,8.77
2022-11-05T02:01:39.386Z,7.47
2022-11-05T02:04:19.113Z,7.32
2022-11-05T02:06:54.529Z,7.50
2022-11-05T02:09:31.844Z,9.18
2022-11-05T02:12:06.653Z,7.60
2022-11-05T02:14:40.591Z,6.97
2022-11-05T02:17:20.023Z,7.72
2022-11-05T02:20:20.397Z,7.50
2022-11-05T02:23:33.446Z,8.02
2022-11-05T02:26:51.664Z,9.20
2022-11-05T02:29:58.701Z,7.65
2022-11-05T02:32:51.769Z,8.35
2022-11-05T02:35:43.048Z,7.75
2022-11-05T02:38:23.695Z,7.60
2022-11-05T02:41:06.362Z,8.15
2022-11-05T02:43:50.049Z,7.70
2022-11-05T02:46:32.193Z,7.50
2022-11-05T02:49:19.004Z,7.65
2022-11-05T02:51:58.015Z,8.07
2022-11-05T02:54:37.971Z,7.78
2022-11-05T02:57:11.782Z,8.02
2022-11-05T03:02:19.286Z,8.60
2022-11-05T03:04:54.697Z,8.40
2022-11-05T03:07:47.142Z,8.30
2022-11-05T03:10:33.735Z,8.43
2022-11-05T03:13:16.364Z,8.25
2022-11-05T03:15:58.565Z,7.95
2022-11-05T03:18:43.873Z,8.40
2022-11-05T03:21:25.608Z,7.90
2022-11-05T03:24:03.572Z,9.52
2022-11-05T03:26:43.162Z,9.35
2022-11-05T03:29:26.521Z,7.20
2022-11-05T03:32:03.112Z,7.68
2022-11-05T03:34:41.136Z,8.65
2022-11-05T03:37:18.382Z,7.70
2022-11-05T03:39:55.566Z,8.30
2022-11-05T03:42:34.738Z,8.00
2022-11-05T03:45:14.577Z,7.35
2022-11-05T03:47:51.765Z,8.20
2022-11-05T03:50:38.472Z,8.82
2022-11-05T03:53:19.906Z,7.53
2022-11-05T03:55:59.851Z,7.60
2022-11-05T03:58:33.762Z,8.77
2022-11-05T04:01:07.768Z,8.18
2022-11-05T04:03:41.581Z,7.40
2022-11-05T04:09:25.209Z,9.63
2022-11-05T04:12:16.262Z,8.82
2022-11-05T04:14:50.048Z,8.65
2022-11-05T04:20:13.517Z,7.47
2022-11-05T04:23:04.814Z,7.95
2022-11-05T04:25:40.047Z,9.00
2022-11-05T04:28:14.279Z,7.72
2022-11-05T04:30:47.394Z,7.38
2022-11-05T04:33:21.224Z,9.93
2022-11-05T04:38:28.571Z,8.60
2022-11-05T04:41:16.858Z,8.57
2022-11-05T04:43:50.749Z,9.65
2022-11-05T04:46:24.580Z,8.65
2022-11-05T04:51:31.986Z,7.70
2022-11-05T04:54:05.992Z,8.18
2022-11-05T04:56:41.228Z,9.95
2022-11-05T04:59:15.087Z,9.35
2022-11-05T05:01:52.966Z,8.48
2022-11-05T05:04:26.960Z,9.88
2022-11-05T05:07:00.862Z,7.72
2022-11-05T05:09:34.747Z,8.07
2022-11-05T05:12:10.346Z,9.80
2022-11-05T05:14:44.226Z,9.48
2022-11-05T05:17:18.552Z,9.02
2022-11-05T05:20:10.034Z,9.18
2022-11-05T05:22:43.944Z,9.07
2022-11-05T05:25:17.966Z,7.93
2022-11-05T05:27:53.530Z,8.50
2022-11-05T05:30:27.473Z,9.23
2022-11-05T05:33:04.599Z,9.40
2022-11-05T05:35:38.452Z,7.88
2022-11-05T05:40:46.120Z,8.48
2022-11-05T05:43:21.575Z,8.48
2022-11-05T05:45:57.465Z,9.10
2022-11-05T05:48:31.308Z,9.85
2022-11-05T05:53:40.131Z,8.63
2022-11-05T05:56:15.319Z,10.18
2022-11-05T05:58:50.756Z,9.18
2022-11-05T06:01:24.823Z,9.23
2022-11-05T06:03:58.754Z,8.77
2022-11-05T06:09:06.279Z,8.73
2022-11-05T06:11:40.173Z,8.98
2022-11-05T06:14:15.548Z,8.68
2022-11-05T06:16:49.433Z,9.25
2022-11-05T06:19:23.311Z,7.68
2022-11-05T06:21:57.154Z,8.63
2022-11-05T06:27:04.634Z,7.90
2022-11-05T06:29:39.857Z,9.25
2022-11-05T06:32:13.776Z,8.45
2022-11-05T06:34:47.597Z,9.88
2022-11-05T06:39:57.259Z,9.18
2022-11-05T06:42:31.118Z,8.98
2022-11-05T06:45:07.764Z,9.70
2022-11-05T06:47:41.630Z,8.27
2022-11-05T06:52:55.155Z,9.07
2022-11-05T06:55:30.398Z,9.75
2022-11-05T06:58:04.434Z,15.65
2022-11-05T07:00:39.752Z,18.58
2022-11-05T07:03:14.827Z,18.38
2022-11-05T07:05:50.685Z,18.02
2022-11-05T07:08:25.169Z,16.67
2022-11-05T07:10:59.007Z,14.73
2022-11-05T07:16:08.702Z,15.60
2022-11-05T07:18:42.646Z,13.93
2022-11-05T07:21:16.522Z,14.52
2022-11-05T07:23:50.589Z,14.70
2022-11-05T07:26:24.555Z,14.88
2022-11-05T07:28:58.576Z,14.13
2022-11-05T07:31:33.891Z,13.02
2022-11-05T07:34:07.869Z,14.02
2022-11-05T07:36:41.754Z,13.02
2022-11-05T07:41:49.267Z,13.37
2022-11-05T07:44:23.614Z,14.43
2022-11-05T07:46:59.062Z,13.48
2022-11-05T07:49:33.051Z,14.25
2022-11-05T07:52:07.098Z,12.32
2022-11-05T07:54:41.003Z,13.25
2022-11-05T07:59:48.488Z,12.55
2022-11-05T08:04:57.752Z,11.35
2022-11-05T08:07:31.678Z,12.15
2022-11-05T08:10:06.119Z,12.15
2022-11-05T08:12:40.116Z,12.05
2022-11-05T08:15:14.057Z,12.80
2022-11-05T08:17:49.454Z,12.48
2022-11-05T08:20:23.456Z,11.93
2022-11-05T08:22:57.503Z,12.27
2022-11-05T08:25:31.638Z,12.85
2022-11-05T08:28:07.643Z,12.63
2022-11-05T08:30:41.814Z,12.57
2022-11-05T08:33:17.136Z,13.50
2022-11-05T08:35:51.991Z,11.50
2022-11-05T08:38:25.943Z,16.25
2022-11-05T08:41:00.634Z,14.65
2022-11-05T08:43:34.568Z,13.75
2022-11-05T08:46:08.711Z,13.63
2022-11-05T08:48:44.500Z,11.82
2022-11-05T08:51:18.581Z,12.27
2022-11-05T08:53:52.460Z,11.02
2022-11-05T08:56:26.468Z,12.32
2022-11-05T08:59:00.996Z,12.65
2022-11-05T09:01:35.590Z,11.15
2022-11-05T09:04:11.553Z,10.88
2022-11-05T09:06:45.538Z,11.98
2022-11-05T09:09:19.430Z,11.00
2022-11-05T09:14:47.593Z,12.52
2022-11-05T09:17:22.869Z,10.30
2022-11-05T09:19:58.204Z,10.55
2022-11-05T09:22:32.491Z,11.57
2022-11-05T09:25:07.387Z,12.15
2022-11-05T09:27:41.332Z,11.98
2022-11-05T09:30:15.703Z,11.40
2022-11-05T09:32:49.717Z,11.90
2022-11-05T09:35:25.003Z,12.75
2022-11-05T09:38:01.154Z,9.68
2022-11-05T09:40:43.033Z,10.07
2022-11-05T09:43:20.188Z,10.73
2022-11-05T09:45:58.022Z,11.35
2022-11-05T09:48:34.235Z,12.45
2022-11-05T09:51:13.423Z,10.63
2022-11-05T09:53:48.632Z,11.60
2022-11-05T09:56:26.011Z,13.00
2022-11-05T09:59:02.977Z,13.18
2022-11-05T10:01:39.059Z,12.18
2022-11-05T10:04:18.027Z,12.65
2022-11-05T10:06:56.741Z,13.80
2022-11-05T10:09:36.870Z,13.50
2022-11-05T10:12:17.821Z,13.25
2022-11-05T10:15:01.264Z,13.50
2022-11-05T10:17:39.313Z,13.97
2022-11-05T10:20:23.580Z,21.65
2022-11-05T10:25:39.496Z,16.02
2022-11-05T10:28:22.310Z,18.38
2022-11-05T10:31:00.725Z,17.30
2022-11-05T10:33:39.711Z,16.95
2022-11-05T10:36:18.119Z,14.48
2022-11-05T10:38:54.447Z,15.30
2022-11-05T10:41:41.516Z,16.17
2022-11-05T10:44:27.893Z,16.08
2022-11-05T10:47:32.355Z,17.63
2022-11-05T10:50:11.490Z,16.73
2022-11-05T10:52:56.974Z,16.13
2022-11-05T10:55:35.869Z,13.73
2022-11-05T10:58:19.699Z,17.05
2022-11-05T11:01:11.570Z,15.85
2022-11-05T11:03:47.503Z,17.00
2022-11-05T11:06:27.677Z,15.77
2022-11-05T11:09:03.827Z,17.38
2022-11-05T11:11:41.767Z,15.55
2022-11-05T11:14:22.762Z,14.65
2022-11-05T11:17:16.656Z,17.15
2022-11-05T11:19:51.541Z,15.83
2022-11-05T11:22:25.656Z,15.95
2022-11-05T11:24:59.713Z,17.15
2022-11-05T11:27:36.365Z,19.35
2022-11-05T11:30:19.296Z,18.50
2022-11-05T11:32:53.586Z,19.83
2022-11-05T11:35:27.696Z,17.77
2022-11-05T11:38:02.369Z,20.45
2022-11-05T11:40:39.165Z,21.77
2022-11-05T11:43:23.373Z,21.33
2022-11-05T11:46:05.383Z,21.13
2022-11-05T11:48:43.512Z,19.80
2022-11-05T11:51:20.257Z,18.73
2022-11-05T11:53:58.998Z,17.90
2022-11-05T11:56:44.851Z,17.88
2022-11-05T11:59:46.920Z,17.42
2022-11-05T12:02:39.895Z,18.45
2022-11-05T12:05:31.089Z,15.77
2022-11-05T12:08:19.329Z,17.90
2022-11-05T12:11:00.889Z,18.00
2022-11-05T12:13:55.973Z,15.77
2022-11-05T12:17:09.679Z,17.77
2022-11-05T12:20:04.882Z,15.70
2022-11-05T12:23:07.489Z,17.67
2022-11-05T12:25:46.918Z,15.05
2022-11-05T12:29:12.260Z,16.27
2022-11-05T12:31:49.922Z,16.95
2022-11-05T12:34:38.993Z,16.17
2022-11-05T12:37:24.871Z,16.02
2022-11-05T12:40:12.445Z,15.65
2022-11-05T12:43:01.749Z,16.63
2022-11-05T12:45:46.320Z,16.13
2022-11-05T12:48:46.392Z,16.42
2022-11-05T12:51:34.345Z,15.35
2022-11-05T12:54:20.223Z,14.57
2022-11-05T12:56:59.449Z,14.98
2022-11-05T12:59:37.387Z,14.88
2022-11-05T13:02:20.493Z,14.75
2022-11-05T13:05:00.316Z,15.07
2022-11-05T13:07:38.923Z,14.55
2022-11-05T13:10:31.508Z,13.15
2022-11-05T13:13:13.222Z,13.60
2022-11-05T13:15:53.193Z,12.68
2022-11-05T13:18:34.209Z,12.27
2022-11-05T13:21:11.936Z,11.90
2022-11-05T13:23:49.721Z,11.13
2022-11-05T13:26:29.782Z,10.43
2022-11-05T13:29:09.020Z,11.70
2022-11-05T13:31:48.265Z,10.45
2022-11-05T13:34:22.533Z,11.38
2022-11-05T13:37:18.917Z,10.00
2022-11-05T13:39:57.464Z,10.45
2022-11-05T13:43:05.507Z,10.88
2022-11-05T13:46:07.590Z,8.43
2022-11-05T13:49:16.693Z,10.02
2022-11-05T13:51:58.444Z,8.82
2022-11-05T13:55:13.987Z,8.93
2022-11-05T13:58:13.364Z,8.88
2022-11-05T14:00:58.411Z,8.48
2022-11-05T14:03:32.612Z,7.88
2022-11-05T14:06:09.105Z,8.77
2022-11-05T14:08:47.603Z,8.93
2022-11-05T14:11:26.876Z,9.35
2022-11-05T14:14:05.075Z,9.65
2022-11-05T14:16:50.108Z,8.57
2022-11-05T14:19:37.222Z,7.75
2022-11-05T14:22:37.739Z,8.85
2022-11-05T14:25:45.329Z,8.40
2022-11-05T14:28:43.845Z,7.50
2022-11-05T14:32:07.308Z,7.28
2022-11-05T14:34:50.204Z,7.32
2022-11-05T14:37:37.180Z,7.47
2022-11-05T14:40:37.783Z,7.65
2022-11-05T14:43:21.924Z,8.10
2022-11-05T14:48:40.590Z,7.45
2022-11-05T14:51:29.939Z,8.20
2022-11-05T14:54:06.793Z,8.48
2022-11-05T14:56:45.017Z,8.07
2022-11-05T14:59:51.992Z,7.22
2022-11-05T15:02:33.227Z,7.63
2022-11-05T15:05:39.788Z,8.52
2022-11-05T15:08:37.138Z,8.30
2022-11-05T15:11:18.721Z,7.47
2022-11-05T15:14:05.742Z,7.30
2022-11-05T15:16:44.207Z,7.35
2022-11-05T15:19:24.370Z,7.63
2022-11-05T15:22:01.156Z,8.20
2022-11-05T15:24:36.056Z,7.30
2022-11-05T15:27:19.735Z,7.30
2022-11-05T15:29:53.886Z,7.53
2022-11-05T15:32:28.198Z,7.47
2022-11-05T15:35:03.533Z,7.75
2022-11-05T15:37:38.024Z,7.57
2022-11-05T15:40:26.502Z,7.20
2022-11-05T15:43:17.702Z,7.93
2022-11-05T15:46:03.289Z,6.43
2022-11-05T15:48:38.138Z,6.70
2022-11-05T15:51:14.035Z,7.35
2022-11-05T15:54:30.962Z,6.68
2022-11-05T15:56:57.970Z,6.63
2022-11-05T15:59:32.533Z,6.35
2022-11-05T16:02:29.189Z,6.50
2022-11-05T16:05:10.737Z,5.95
2022-11-05T16:07:46.676Z,6.57
2022-11-05T16:10:24.140Z,6.10
2022-11-05T16:12:58.217Z,6.82
2022-11-05T16:15:34.506Z,6.43
2022-11-05T16:18:23.926Z,5.43
2022-11-05T16:21:07.118Z,5.68
2022-11-05T16:23:45.791Z,5.80
2022-11-05T16:27:01.287Z,5.68
2022-11-05T16:29:31.826Z,6.13
2022-11-05T16:32:14.123Z,5.22
2022-11-05T16:34:50.444Z,5.63
2022-11-05T16:37:26.348Z,5.45
2022-11-05T16:40:03.858Z,5.28
2022-11-05T16:42:40.375Z,5.50
2022-11-05T16:45:15.461Z,4.70
2022-11-05T16:47:49.597Z,5.05
2022-11-05T16:50:27.425Z,4.65
2022-11-05T16:53:01.354Z,4.60
2022-11-05T16:55:39.332Z,5.43
2022-11-05T16:58:20.823Z,5.30
2022-11-05T17:01:02.805Z,4.55
2022-11-05T17:03:36.934Z,5.03
2022-11-05T17:06:11.125Z,5.28
2022-11-05T17:11:22.425Z,5.00
2022-11-05T17:13:56.267Z,4.22
2022-11-05T17:19:04.410Z,4.18
2022-11-05T17:21:38.370Z,4.55
2022-11-05T17:24:12.269Z,4.72
2022-11-05T17:26:47.650Z,4.75
2022-11-05T17:29:21.584Z,3.83
2022-11-05T17:31:55.403Z,4.53
2022-11-05T17:37:02.894Z,4.53
2022-11-05T17:39:36.845Z,3.75
2022-11-05T17:42:12.122Z,3.72
2022-11-05T17:44:45.970Z,4.03
2022-11-05T17:49:53.346Z,4.63
2022-11-05T17:52:28.506Z,4.32
2022-11-05T17:55:02.702Z,5.05
2022-11-05T17:57:37.985Z,4.53
2022-11-05T18:00:13.845Z,4.13
2022-11-05T18:02:48.608Z,4.57
2022-11-05T18:05:23.726Z,4.95
2022-11-05T18:07:58.430Z,4.60
2022-11-05T18:10:32.394Z,6.30
2022-11-05T18:13:08.254Z,6.00
2022-11-05T18:15:42.228Z,5.78
2022-11-05T18:18:16.095Z,6.60
2022-11-05T18:23:23.534Z,8.00
2022-11-05T18:28:32.921Z,8.02
2022-11-05T18:31:16.869Z,7.65
2022-11-05T18:33:55.919Z,8.00
2022-11-05T18:36:31.444Z,8.80
2022-11-05T18:39:06.202Z,9.20
2022-11-05T18:41:40.350Z,7.70
2022-11-05T18:44:16.879Z,9.23
2022-11-05T18:46:58.004Z,8.40
2022-11-05T18:49:33.333Z,9.30
2022-11-05T18:52:08.255Z,8.70
2022-11-05T18:54:42.917Z,8.85
2022-11-05T18:57:17.031Z,9.25
2022-11-05T18:59:52.582Z,8.52
2022-11-05T19:02:27.371Z,9.52
2022-11-05T19:07:56.743Z,8.65
2022-11-05T19:10:30.760Z,9.50
2022-11-05T19:13:04.855Z,9.55
2022-11-05T19:15:44.015Z,9.38
2022-11-05T19:18:18.023Z,8.45
2022-11-05T19:20:51.945Z,9.55
2022-11-05T19:23:26.334Z,8.90
2022-11-05T19:26:00.415Z,9.48
2022-11-05T19:28:34.633Z,8.70
2022-11-05T19:31:14.317Z,8.38
2022-11-05T19:33:49.770Z,8.32
2022-11-05T19:36:25.541Z,7.65
2022-11-05T19:39:02.033Z,9.05
2022-11-05T19:41:36.304Z,8.25
2022-11-05T19:44:10.690Z,8.73
2022-11-05T19:46:46.504Z,9.23
2022-11-05T19:49:20.559Z,8.93
2022-11-05T19:51:54.519Z,8.73
2022-11-05T19:54:28.500Z,8.85
2022-11-05T19:57:02.885Z,7.93
2022-11-05T19:59:36.929Z,8.48
2022-11-05T20:02:16.284Z,8.40
2022-11-05T20:04:51.550Z,8.25
2022-11-05T20:07:25.808Z,7.25
2022-11-05T20:09:59.775Z,9.70
2022-11-05T20:12:34.634Z,9.05
2022-11-05T20:15:09.722Z,9.68
2022-11-05T20:17:45.099Z,10.52
2022-11-05T20:20:20.168Z,9.07
2022-11-05T20:22:54.608Z,8.80
2022-11-05T20:25:28.557Z,9.13
2022-11-05T20:30:36.181Z,9.07
2022-11-05T20:33:11.512Z,9.85
2022-11-05T20:35:46.091Z,8.80
2022-11-05T20:38:20.082Z,8.98
2022-11-05T20:40:54.085Z,8.98
2022-11-05T20:43:30.506Z,8.75
2022-11-05T20:46:05.450Z,9.10
2022-11-05T20:48:41.018Z,9.23
2022-11-05T20:51:17.869Z,8.02
2022-11-05T20:53:56.285Z,7.68
2022-11-05T20:56:32.336Z,9.73
2022-11-05T20:59:06.688Z,8.93
2022-11-05T21:01:40.883Z,9.15
2022-11-05T21:04:16.388Z,9.65
2022-11-05T21:06:50.351Z,9.43
2022-11-05T21:09:24.286Z,9.07
2022-11-05T21:12:13.456Z,9.40
2022-11-05T21:14:47.561Z,8.23
2022-11-05T21:19:56.618Z,8.77
2022-11-05T21:22:30.809Z,7.18
2022-11-05T21:25:05.474Z,8.23
2022-11-05T21:27:43.443Z,8.48
2022-11-05T21:30:17.816Z,8.73
2022-11-05T21:32:51.756Z,8.00
2022-11-05T21:35:28.607Z,7.40
2022-11-05T21:38:02.988Z,7.63
2022-11-05T21:40:36.813Z,8.48
2022-11-05T21:45:46.007Z,8.15
2022-11-05T21:48:20.364Z,8.45
2022-11-05T21:51:13.209Z,8.68
2022-11-05T21:54:04.393Z,7.93
2022-11-05T21:56:57.059Z,8.05
2022-11-05T21:59:51.876Z,7.28
2022-11-05T22:02:28.619Z,8.65
2022-11-05T22:05:03.777Z,7.70
2022-11-05T22:07:40.645Z,8.73
2022-11-05T22:10:16.490Z,8.90
2022-11-05T22:12:50.539Z,8.18
2022-11-05T22:17:58.326Z,7.25
2022-11-05T22:20:32.513Z,7.88
2022-11-05T22:23:11.228Z,9.63
2022-11-05T22:25:45.963Z,8.15
2022-11-05T22:28:19.831Z,7.57
2022-11-05T22:33:27.417Z,9.40
2022-11-05T22:36:01.915Z,8.68
2022-11-05T22:38:37.307Z,8.13
2022-11-05T22:41:12.986Z,7.97
2022-11-05T22:43:47.216Z,8.57
2022-11-05T22:46:23.296Z,8.82
2022-11-05T22:48:58.356Z,8.38
2022-11-05T22:51:33.468Z,8.93
2022-11-05T22:54:09.700Z,7.80
2022-11-05T22:56:44.062Z,9.15
2022-11-05T22:59:19.288Z,8.15
2022-11-05T23:01:53.370Z,9.43
2022-11-05T23:04:27.331Z,8.68
2022-11-05T23:07:20.955Z,9.45
2022-11-05T23:10:17.561Z,8.23
2022-11-05T23:12:53.283Z,9.23
2022-11-05T23:15:44.892Z,8.45
2022-11-05T23:18:36.667Z,8.20
2022-11-05T23:21:28.253Z,7.28
2022-11-05T23:24:08.123Z,7.32
2022-11-05T23:26:52.824Z,7.45
2022-11-05T23:29:28.773Z,7.13
2022-11-05T23:32:19.983Z,8.10
2022-11-05T23:34:54.715Z,7.68
2022-11-05T23:37:48.802Z,7.20
2022-11-05T23:40:24.906Z,7.45
2022-11-05T23:43:17.752Z,7.78
2022-11-05T23:46:08.850Z,7.10
2022-11-05T23:48:42.809Z,6.65
2022-11-05T23:51:16.765Z,6.13
2022-11-05T23:53:50.699Z,6.97
2022-11-05T23:56:24.763Z,6.97
2022-11-05T23:59:00.447Z,6.22
